TIST/STT METAR and TAF weather

Enter ICAO airport designator
Station Type Date Time Source
TIST METAR 2019/12/10 05:53 UTC NOAA

TIST 100553Z AUTO 07007KT 10SM CLR 27/21 A3001 RMK AO2 SLP164 T02670211 10278 20267 58013


Station Type Date Time Source
TIST Decoded METAR 2019/12/10 05:53 UTC NOAA

Charlotte Amalie St. Thomas, Cyril E. King Airport, Virgin Islands (TIST) 18-20N 064-59W
Dec 10, 2019 - 12:53 AM EST / 2019.12.10 0553 UTC
Wind: from the ENE (070 degrees) at 8 MPH (7 KT):0
Visibility: 10 mile(s):0
Sky conditions: clear
Temperature: 80.1 F (26.7 C)
Dew Point: 70.0 F (21.1 C)
Relative Humidity: 71%
Pressure (altimeter): 30.01 in. Hg (1016 hPa)
Pressure tendency: 0.04 inches (1.3 hPa) lower than three hours ago
ob: TIST 100553Z AUTO 07007KT 10SM CLR 27/21 A3001 RMK AO2 SLP164 T02670211 10278 20267 58013
cycle: 6

Station Type Date Time Source
TIST TAF 2019/12/10 06:44 UTC NOAA

TAF TIST 100538Z 1006/1106 07008KT P6SM VCSH FEW026
FM101400 08012G22KT P6SM FEW025 SCT050
FM102200 08012KT P6SM VCSH SCT025 BKN060
FM110200 07008KT P6SM FEW030 FEW045

Example: see airport list